sensor_id;sensor_type;location;lat;lon;timestamp;temperature;humidity
78647;DHT22;67961;43.460;3.762;2023-07-29T00:01:35;23.50;76.20
78647;DHT22;67961;43.460;3.762;2023-07-29T00:04:01;23.50;76.20
78647;DHT22;67961;43.460;3.762;2023-07-29T00:06:27;23.50;76.10
78647;DHT22;67961;43.460;3.762;2023-07-29T00:08:52;23.40;76.30
78647;DHT22;67961;43.460;3.762;2023-07-29T00:11:18;23.40;76.50
78647;DHT22;67961;43.460;3.762;2023-07-29T00:13:44;23.30;76.50
78647;DHT22;67961;43.460;3.762;2023-07-29T00:16:09;23.20;76.80
78647;DHT22;67961;43.460;3.762;2023-07-29T00:18:36;23.20;76.90
78647;DHT22;67961;43.460;3.762;2023-07-29T00:21:01;23.20;77.00
78647;DHT22;67961;43.460;3.762;2023-07-29T00:23:27;23.20;77.20
78647;DHT22;67961;43.460;3.762;2023-07-29T00:25:53;23.20;77.60
78647;DHT22;67961;43.460;3.762;2023-07-29T00:28:19;23.10;77.60
78647;DHT22;67961;43.460;3.762;2023-07-29T00:30:44;23.10;77.50
78647;DHT22;67961;43.460;3.762;2023-07-29T00:33:10;23.20;77.60
78647;DHT22;67961;43.460;3.762;2023-07-29T00:35:35;23.10;77.70
78647;DHT22;67961;43.460;3.762;2023-07-29T00:38:01;23.10;78.00
78647;DHT22;67961;43.460;3.762;2023-07-29T00:40:28;23.10;78.10
78647;DHT22;67961;43.460;3.762;2023-07-29T00:42:54;23.10;78.10
78647;DHT22;67961;43.460;3.762;2023-07-29T00:45:20;23.10;78.00
78647;DHT22;67961;43.460;3.762;2023-07-29T00:47:46;22.90;77.90
78647;DHT22;67961;43.460;3.762;2023-07-29T00:50:14;22.80;78.10
78647;DHT22;67961;43.460;3.762;2023-07-29T00:52:40;22.80;78.20
78647;DHT22;67961;43.460;3.762;2023-07-29T00:55:06;22.80;78.00
78647;DHT22;67961;43.460;3.762;2023-07-29T00:57:32;22.80;78.00
78647;DHT22;67961;43.460;3.762;2023-07-29T00:59:59;22.80;78.10
78647;DHT22;67961;43.460;3.762;2023-07-29T01:02:25;22.80;78.10
78647;DHT22;67961;43.460;3.762;2023-07-29T01:04:56;22.80;78.10
78647;DHT22;67961;43.460;3.762;2023-07-29T01:13:06;22.70;78.50
78647;DHT22;67961;43.460;3.762;2023-07-29T01:15:58;22.60;78.50
78647;DHT22;67961;43.460;3.762;2023-07-29T01:18:31;22.60;78.90
78647;DHT22;67961;43.460;3.762;2023-07-29T01:21:03;22.60;78.90
78647;DHT22;67961;43.460;3.762;2023-07-29T01:23:31;22.50;78.60
78647;DHT22;67961;43.460;3.762;2023-07-29T01:25:57;22.50;78.40
78647;DHT22;67961;43.460;3.762;2023-07-29T01:28:23;22.30;78.60
78647;DHT22;67961;43.460;3.762;2023-07-29T01:30:51;22.10;79.00
78647;DHT22;67961;43.460;3.762;2023-07-29T01:33:22;22.00;79.20
78647;DHT22;67961;43.460;3.762;2023-07-29T01:36:08;22.00;79.10
78647;DHT22;67961;43.460;3.762;2023-07-29T01:38:38;22.10;78.90
78647;DHT22;67961;43.460;3.762;2023-07-29T01:41:07;22.10;79.10
78647;DHT22;67961;43.460;3.762;2023-07-29T01:43:36;22.00;79.30
78647;DHT22;67961;43.460;3.762;2023-07-29T01:46:15;21.90;79.30
78647;DHT22;67961;43.460;3.762;2023-07-29T01:48:41;21.90;79.90
78647;DHT22;67961;43.460;3.762;2023-07-29T01:51:07;21.90;80.00
78647;DHT22;67961;43.460;3.762;2023-07-29T01:53:33;21.90;80.50
78647;DHT22;67961;43.460;3.762;2023-07-29T01:55:59;22.00;80.10
78647;DHT22;67961;43.460;3.762;2023-07-29T01:58:25;22.00;80.00
78647;DHT22;67961;43.460;3.762;2023-07-29T02:00:50;22.10;79.90
78647;DHT22;67961;43.460;3.762;2023-07-29T02:03:16;22.20;79.80
78647;DHT22;67961;43.460;3.762;2023-07-29T02:05:42;22.30;79.80
78647;DHT22;67961;43.460;3.762;2023-07-29T02:08:09;22.30;80.00
78647;DHT22;67961;43.460;3.762;2023-07-29T02:10:35;22.40;80.40
78647;DHT22;67961;43.460;3.762;2023-07-29T02:13:01;22.40;80.60
78647;DHT22;67961;43.460;3.762;2023-07-29T02:15:26;22.50;80.70
78647;DHT22;67961;43.460;3.762;2023-07-29T02:17:53;22.50;80.50
78647;DHT22;67961;43.460;3.762;2023-07-29T02:20:19;22.50;80.50
78647;DHT22;67961;43.460;3.762;2023-07-29T02:22:45;22.50;80.60
78647;DHT22;67961;43.460;3.762;2023-07-29T02:25:10;22.60;80.40
78647;DHT22;67961;43.460;3.762;2023-07-29T02:27:36;22.60;80.00
78647;DHT22;67961;43.460;3.762;2023-07-29T02:30:02;22.60;80.00
78647;DHT22;67961;43.460;3.762;2023-07-29T02:32:28;22.60;80.20
78647;DHT22;67961;43.460;3.762;2023-07-29T02:34:54;22.50;80.30
78647;DHT22;67961;43.460;3.762;2023-07-29T02:37:20;22.50;80.50
78647;DHT22;67961;43.460;3.762;2023-07-29T02:39:46;22.50;80.40
78647;DHT22;67961;43.460;3.762;2023-07-29T02:42:11;22.60;80.40
78647;DHT22;67961;43.460;3.762;2023-07-29T02:44:37;22.60;80.40
78647;DHT22;67961;43.460;3.762;2023-07-29T02:47:03;22.50;80.60
78647;DHT22;67961;43.460;3.762;2023-07-29T02:49:29;22.60;80.80
78647;DHT22;67961;43.460;3.762;2023-07-29T02:51:55;22.70;80.70
78647;DHT22;67961;43.460;3.762;2023-07-29T02:54:20;22.80;80.80
78647;DHT22;67961;43.460;3.762;2023-07-29T02:56:46;22.70;80.70
78647;DHT22;67961;43.460;3.762;2023-07-29T02:59:11;22.70;80.80
78647;DHT22;67961;43.460;3.762;2023-07-29T03:01:37;22.70;80.70
78647;DHT22;67961;43.460;3.762;2023-07-29T03:04:03;22.70;80.60
78647;DHT22;67961;43.460;3.762;2023-07-29T03:06:29;22.80;80.40
78647;DHT22;67961;43.460;3.762;2023-07-29T03:08:54;22.80;80.40
78647;DHT22;67961;43.460;3.762;2023-07-29T03:11:20;22.80;80.30
78647;DHT22;67961;43.460;3.762;2023-07-29T03:13:46;22.70;80.50
78647;DHT22;67961;43.460;3.762;2023-07-29T03:16:14;22.70;80.60
78647;DHT22;67961;43.460;3.762;2023-07-29T03:18:40;22.80;80.60
78647;DHT22;67961;43.460;3.762;2023-07-29T03:21:06;22.80;80.60
78647;DHT22;67961;43.460;3.762;2023-07-29T03:23:33;22.80;80.50
78647;DHT22;67961;43.460;3.762;2023-07-29T03:26:00;22.80;80.50
78647;DHT22;67961;43.460;3.762;2023-07-29T03:28:28;22.70;80.50
78647;DHT22;67961;43.460;3.762;2023-07-29T03:30:54;22.80;80.50
78647;DHT22;67961;43.460;3.762;2023-07-29T03:33:20;22.70;80.30
78647;DHT22;67961;43.460;3.762;2023-07-29T03:35:45;22.70;80.60
78647;DHT22;67961;43.460;3.762;2023-07-29T03:38:11;22.70;81.00
78647;DHT22;67961;43.460;3.762;2023-07-29T03:40:40;22.60;81.30
78647;DHT22;67961;43.460;3.762;2023-07-29T03:43:06;22.70;81.60
78647;DHT22;67961;43.460;3.762;2023-07-29T03:45:33;22.70;81.80
78647;DHT22;67961;43.460;3.762;2023-07-29T03:47:58;22.60;82.20
78647;DHT22;67961;43.460;3.762;2023-07-29T03:50:24;22.60;82.40
78647;DHT22;67961;43.460;3.762;2023-07-29T03:52:50;22.60;83.00
78647;DHT22;67961;43.460;3.762;2023-07-29T03:55:16;22.60;83.80
78647;DHT22;67961;43.460;3.762;2023-07-29T03:57:41;22.60;84.20
78647;DHT22;67961;43.460;3.762;2023-07-29T04:00:07;22.50;84.50
78647;DHT22;67961;43.460;3.762;2023-07-29T04:02:34;22.50;84.80
78647;DHT22;67961;43.460;3.762;2023-07-29T04:05:03;22.50;85.10
78647;DHT22;67961;43.460;3.762;2023-07-29T04:07:30;22.50;85.40
78647;DHT22;67961;43.460;3.762;2023-07-29T04:09:55;22.50;85.50
78647;DHT22;67961;43.460;3.762;2023-07-29T04:12:22;22.40;85.60
78647;DHT22;67961;43.460;3.762;2023-07-29T04:14:48;22.40;85.80
78647;DHT22;67961;43.460;3.762;2023-07-29T04:17:14;22.50;86.00
78647;DHT22;67961;43.460;3.762;2023-07-29T04:19:43;22.50;85.80
78647;DHT22;67961;43.460;3.762;2023-07-29T04:22:09;22.50;85.60
78647;DHT22;67961;43.460;3.762;2023-07-29T04:24:35;22.50;85.70
78647;DHT22;67961;43.460;3.762;2023-07-29T04:27:00;22.40;85.70
78647;DHT22;67961;43.460;3.762;2023-07-29T04:29:28;22.40;85.50
78647;DHT22;67961;43.460;3.762;2023-07-29T04:31:54;22.40;85.40
78647;DHT22;67961;43.460;3.762;2023-07-29T04:34:20;22.40;85.30
78647;DHT22;67961;43.460;3.762;2023-07-29T04:36:46;22.50;85.10
78647;DHT22;67961;43.460;3.762;2023-07-29T04:39:12;22.50;84.90
78647;DHT22;67961;43.460;3.762;2023-07-29T04:41:37;22.50;85.00
78647;DHT22;67961;43.460;3.762;2023-07-29T04:44:03;22.50;84.80
78647;DHT22;67961;43.460;3.762;2023-07-29T04:46:29;22.50;84.70
78647;DHT22;67961;43.460;3.762;2023-07-29T04:48:55;22.50;84.60
78647;DHT22;67961;43.460;3.762;2023-07-29T04:51:21;22.50;84.70
78647;DHT22;67961;43.460;3.762;2023-07-29T04:53:47;22.50;84.70
78647;DHT22;67961;43.460;3.762;2023-07-29T04:56:13;22.50;84.80
78647;DHT22;67961;43.460;3.762;2023-07-29T04:58:46;22.50;84.70
78647;DHT22;67961;43.460;3.762;2023-07-29T05:01:11;22.50;84.50
78647;DHT22;67961;43.460;3.762;2023-07-29T05:03:37;22.50;84.40
78647;DHT22;67961;43.460;3.762;2023-07-29T05:06:05;22.30;84.70
78647;DHT22;67961;43.460;3.762;2023-07-29T05:08:30;22.30;84.90
78647;DHT22;67961;43.460;3.762;2023-07-29T05:10:56;22.30;85.20
78647;DHT22;67961;43.460;3.762;2023-07-29T05:13:22;22.40;85.30
78647;DHT22;67961;43.460;3.762;2023-07-29T05:15:48;22.40;85.20
78647;DHT22;67961;43.460;3.762;2023-07-29T05:18:15;22.40;85.30
78647;DHT22;67961;43.460;3.762;2023-07-29T05:20:41;22.40;85.50
78647;DHT22;67961;43.460;3.762;2023-07-29T05:23:06;22.50;85.50
78647;DHT22;67961;43.460;3.762;2023-07-29T05:25:32;22.50;85.50
78647;DHT22;67961;43.460;3.762;2023-07-29T05:28:03;22.50;85.40
78647;DHT22;67961;43.460;3.762;2023-07-29T05:30:29;22.60;85.30
78647;DHT22;67961;43.460;3.762;2023-07-29T05:32:59;22.60;85.20
78647;DHT22;67961;43.460;3.762;2023-07-29T05:35:25;22.70;85.10
78647;DHT22;67961;43.460;3.762;2023-07-29T05:37:51;22.60;84.90
78647;DHT22;67961;43.460;3.762;2023-07-29T05:40:17;22.60;85.20
78647;DHT22;67961;43.460;3.762;2023-07-29T05:42:42;22.60;85.30
78647;DHT22;67961;43.460;3.762;2023-07-29T05:45:11;22.60;85.30
78647;DHT22;67961;43.460;3.762;2023-07-29T05:47:37;22.60;85.30
78647;DHT22;67961;43.460;3.762;2023-07-29T05:50:03;22.60;85.50
78647;DHT22;67961;43.460;3.762;2023-07-29T05:52:33;22.60;85.50
78647;DHT22;67961;43.460;3.762;2023-07-29T05:54:58;22.60;85.60
78647;DHT22;67961;43.460;3.762;2023-07-29T05:57:24;22.70;85.50
78647;DHT22;67961;43.460;3.762;2023-07-29T05:59:50;22.70;85.40
78647;DHT22;67961;43.460;3.762;2023-07-29T06:02:15;22.80;85.30
78647;DHT22;67961;43.460;3.762;2023-07-29T06:04:41;22.90;85.20
78647;DHT22;67961;43.460;3.762;2023-07-29T06:07:07;23.00;85.20
78647;DHT22;67961;43.460;3.762;2023-07-29T06:09:32;23.00;85.30
78647;DHT22;67961;43.460;3.762;2023-07-29T06:11:58;23.10;85.20
78647;DHT22;67961;43.460;3.762;2023-07-29T06:14:24;23.10;85.30
78647;DHT22;67961;43.460;3.762;2023-07-29T06:16:50;23.00;85.70
78647;DHT22;67961;43.460;3.762;2023-07-29T06:19:15;23.00;86.10
78647;DHT22;67961;43.460;3.762;2023-07-29T06:21:41;23.00;86.30
78647;DHT22;67961;43.460;3.762;2023-07-29T06:24:07;23.10;86.20
78647;DHT22;67961;43.460;3.762;2023-07-29T06:26:33;23.20;85.90
78647;DHT22;67961;43.460;3.762;2023-07-29T06:28:58;23.20;85.30
78647;DHT22;67961;43.460;3.762;2023-07-29T06:31:24;23.10;83.90
78647;DHT22;67961;43.460;3.762;2023-07-29T06:33:49;23.20;82.60
78647;DHT22;67961;43.460;3.762;2023-07-29T06:36:15;23.20;82.00
78647;DHT22;67961;43.460;3.762;2023-07-29T06:38:41;23.10;81.70
78647;DHT22;67961;43.460;3.762;2023-07-29T06:41:07;23.10;81.80
78647;DHT22;67961;43.460;3.762;2023-07-29T06:43:32;23.10;81.70
78647;DHT22;67961;43.460;3.762;2023-07-29T06:45:58;23.10;81.80
78647;DHT22;67961;43.460;3.762;2023-07-29T06:48:24;23.10;81.80
78647;DHT22;67961;43.460;3.762;2023-07-29T06:50:50;23.10;81.80
78647;DHT22;67961;43.460;3.762;2023-07-29T06:53:16;23.10;81.50
78647;DHT22;67961;43.460;3.762;2023-07-29T06:55:42;23.10;81.50
78647;DHT22;67961;43.460;3.762;2023-07-29T06:58:08;23.20;81.60
78647;DHT22;67961;43.460;3.762;2023-07-29T07:00:34;23.20;81.20
78647;DHT22;67961;43.460;3.762;2023-07-29T07:02:59;23.30;81.10
78647;DHT22;67961;43.460;3.762;2023-07-29T07:05:25;23.40;80.90
78647;DHT22;67961;43.460;3.762;2023-07-29T07:07:50;23.40;80.40
78647;DHT22;67961;43.460;3.762;2023-07-29T07:10:16;23.40;80.10
78647;DHT22;67961;43.460;3.762;2023-07-29T07:12:42;23.50;80.00
78647;DHT22;67961;43.460;3.762;2023-07-29T07:15:08;23.60;80.30
78647;DHT22;67961;43.460;3.762;2023-07-29T07:17:33;23.60;80.40
78647;DHT22;67961;43.460;3.762;2023-07-29T07:19:59;23.60;80.20
78647;DHT22;67961;43.460;3.762;2023-07-29T07:22:25;23.60;80.30
78647;DHT22;67961;43.460;3.762;2023-07-29T07:24:50;23.60;80.20
78647;DHT22;67961;43.460;3.762;2023-07-29T07:27:16;23.60;80.20
78647;DHT22;67961;43.460;3.762;2023-07-29T07:29:41;23.60;80.00
78647;DHT22;67961;43.460;3.762;2023-07-29T07:32:07;23.70;80.00
78647;DHT22;67961;43.460;3.762;2023-07-29T07:34:33;23.80;79.60
78647;DHT22;67961;43.460;3.762;2023-07-29T07:37:00;23.80;79.30
78647;DHT22;67961;43.460;3.762;2023-07-29T07:39:29;23.80;79.40
78647;DHT22;67961;43.460;3.762;2023-07-29T07:41:55;23.80;79.70
78647;DHT22;67961;43.460;3.762;2023-07-29T07:44:20;23.80;79.90
78647;DHT22;67961;43.460;3.762;2023-07-29T07:46:46;24.00;79.70
78647;DHT22;67961;43.460;3.762;2023-07-29T07:49:12;24.00;79.30
78647;DHT22;67961;43.460;3.762;2023-07-29T07:51:38;24.20;78.70
78647;DHT22;67961;43.460;3.762;2023-07-29T07:54:04;24.10;78.60
78647;DHT22;67961;43.460;3.762;2023-07-29T07:56:30;24.20;78.50
78647;DHT22;67961;43.460;3.762;2023-07-29T07:58:55;24.20;78.20
78647;DHT22;67961;43.460;3.762;2023-07-29T08:01:21;24.20;78.00
78647;DHT22;67961;43.460;3.762;2023-07-29T08:03:47;24.20;78.20
78647;DHT22;67961;43.460;3.762;2023-07-29T08:06:13;24.20;78.10
78647;DHT22;67961;43.460;3.762;2023-07-29T08:08:38;24.10;78.10
78647;DHT22;67961;43.460;3.762;2023-07-29T08:11:04;24.10;78.30
78647;DHT22;67961;43.460;3.762;2023-07-29T08:13:30;24.50;77.30
78647;DHT22;67961;43.460;3.762;2023-07-29T08:15:55;24.70;76.50
78647;DHT22;67961;43.460;3.762;2023-07-29T08:18:21;25.20;75.80
78647;DHT22;67961;43.460;3.762;2023-07-29T08:20:54;25.60;73.60
78647;DHT22;67961;43.460;3.762;2023-07-29T08:23:21;25.20;74.70
78647;DHT22;67961;43.460;3.762;2023-07-29T08:25:54;25.20;74.90
78647;DHT22;67961;43.460;3.762;2023-07-29T08:28:22;25.30;74.80
78647;DHT22;67961;43.460;3.762;2023-07-29T08:30:48;25.40;74.70
78647;DHT22;67961;43.460;3.762;2023-07-29T08:33:14;25.80;73.60
78647;DHT22;67961;43.460;3.762;2023-07-29T08:35:40;25.60;73.80
78647;DHT22;67961;43.460;3.762;2023-07-29T08:38:05;25.50;74.20
78647;DHT22;67961;43.460;3.762;2023-07-29T08:40:32;25.90;72.90
78647;DHT22;67961;43.460;3.762;2023-07-29T08:43:00;25.80;73.00
78647;DHT22;67961;43.460;3.762;2023-07-29T08:45:35;25.60;73.20
78647;DHT22;67961;43.460;3.762;2023-07-29T08:48:02;25.60;73.70
78647;DHT22;67961;43.460;3.762;2023-07-29T08:50:32;25.20;74.40
78647;DHT22;67961;43.460;3.762;2023-07-29T08:52:59;25.50;74.40
78647;DHT22;67961;43.460;3.762;2023-07-29T08:55:26;25.40;73.90
78647;DHT22;67961;43.460;3.762;2023-07-29T08:57:52;25.30;74.50
78647;DHT22;67961;43.460;3.762;2023-07-29T09:00:19;25.20;75.10
78647;DHT22;67961;43.460;3.762;2023-07-29T09:02:45;25.20;75.00
78647;DHT22;67961;43.460;3.762;2023-07-29T09:05:10;25.10;75.20
78647;DHT22;67961;43.460;3.762;2023-07-29T09:07:36;25.10;75.30
78647;DHT22;67961;43.460;3.762;2023-07-29T09:10:04;25.00;75.20
78647;DHT22;67961;43.460;3.762;2023-07-29T09:12:29;25.10;75.20
78647;DHT22;67961;43.460;3.762;2023-07-29T09:14:55;25.30;74.40
78647;DHT22;67961;43.460;3.762;2023-07-29T09:17:21;25.50;74.70
78647;DHT22;67961;43.460;3.762;2023-07-29T09:19:50;25.90;73.30
78647;DHT22;67961;43.460;3.762;2023-07-29T09:22:20;26.20;72.90
78647;DHT22;67961;43.460;3.762;2023-07-29T09:24:47;26.30;72.10
78647;DHT22;67961;43.460;3.762;2023-07-29T09:27:33;26.20;72.10
78647;DHT22;67961;43.460;3.762;2023-07-29T09:30:04;26.10;72.50
78647;DHT22;67961;43.460;3.762;2023-07-29T09:32:30;26.10;72.70
78647;DHT22;67961;43.460;3.762;2023-07-29T09:34:56;26.00;72.80
78647;DHT22;67961;43.460;3.762;2023-07-29T09:37:22;25.90;73.70
78647;DHT22;67961;43.460;3.762;2023-07-29T09:39:49;25.80;74.20
78647;DHT22;67961;43.460;3.762;2023-07-29T09:44:01;25.70;75.40
78647;DHT22;67961;43.460;3.762;2023-07-29T09:46:37;25.60;75.20
78647;DHT22;67961;43.460;3.762;2023-07-29T09:49:07;25.40;75.90
78647;DHT22;67961;43.460;3.762;2023-07-29T09:51:39;25.10;76.40
78647;DHT22;67961;43.460;3.762;2023-07-29T09:54:05;25.00;76.30
78647;DHT22;67961;43.460;3.762;2023-07-29T09:56:31;25.00;76.50
78647;DHT22;67961;43.460;3.762;2023-07-29T09:59:00;25.00;76.90
78647;DHT22;67961;43.460;3.762;2023-07-29T10:01:26;24.90;77.70
78647;DHT22;67961;43.460;3.762;2023-07-29T10:03:51;24.70;78.20
78647;DHT22;67961;43.460;3.762;2023-07-29T10:06:18;24.90;78.30
78647;DHT22;67961;43.460;3.762;2023-07-29T10:08:44;25.10;77.60
78647;DHT22;67961;43.460;3.762;2023-07-29T10:11:11;25.60;76.70
78647;DHT22;67961;43.460;3.762;2023-07-29T10:13:37;25.50;75.60
78647;DHT22;67961;43.460;3.762;2023-07-29T10:16:04;25.20;76.60
78647;DHT22;67961;43.460;3.762;2023-07-29T10:18:31;25.30;76.80
78647;DHT22;67961;43.460;3.762;2023-07-29T10:20:58;25.30;77.10
78647;DHT22;67961;43.460;3.762;2023-07-29T10:23:26;25.30;76.60
78647;DHT22;67961;43.460;3.762;2023-07-29T10:26:04;25.50;76.50
78647;DHT22;67961;43.460;3.762;2023-07-29T10:28:31;25.50;75.80
78647;DHT22;67961;43.460;3.762;2023-07-29T10:30:58;25.40;76.40
78647;DHT22;67961;43.460;3.762;2023-07-29T10:33:25;25.40;76.40
78647;DHT22;67961;43.460;3.762;2023-07-29T10:35:53;25.50;75.70
78647;DHT22;67961;43.460;3.762;2023-07-29T10:38:21;25.40;76.10
78647;DHT22;67961;43.460;3.762;2023-07-29T10:40:54;25.50;76.60
78647;DHT22;67961;43.460;3.762;2023-07-29T10:43:32;25.60;76.10
78647;DHT22;67961;43.460;3.762;2023-07-29T10:48:42;25.80;76.40
78647;DHT22;67961;43.460;3.762;2023-07-29T10:51:26;25.90;76.40
78647;DHT22;67961;43.460;3.762;2023-07-29T10:53:54;26.30;75.40
78647;DHT22;67961;43.460;3.762;2023-07-29T10:56:31;26.30;74.90
78647;DHT22;67961;43.460;3.762;2023-07-29T10:59:41;26.30;75.40
78647;DHT22;67961;43.460;3.762;2023-07-29T11:02:17;26.40;74.80
78647;DHT22;67961;43.460;3.762;2023-07-29T11:04:50;26.60;74.20
78647;DHT22;67961;43.460;3.762;2023-07-29T11:12:39;26.70;73.00
78647;DHT22;67961;43.460;3.762;2023-07-29T11:15:23;26.80;73.10
78647;DHT22;67961;43.460;3.762;2023-07-29T11:17:53;26.80;72.50
78647;DHT22;67961;43.460;3.762;2023-07-29T11:20:29;26.90;72.30
78647;DHT22;67961;43.460;3.762;2023-07-29T11:23:03;27.00;71.40
78647;DHT22;67961;43.460;3.762;2023-07-29T11:25:31;27.20;70.80
78647;DHT22;67961;43.460;3.762;2023-07-29T11:27:59;27.10;71.70
78647;DHT22;67961;43.460;3.762;2023-07-29T11:30:26;27.20;71.00
78647;DHT22;67961;43.460;3.762;2023-07-29T11:32:53;27.30;71.30
78647;DHT22;67961;43.460;3.762;2023-07-29T11:40:01;27.30;72.40
78647;DHT22;67961;43.460;3.762;2023-07-29T11:42:27;27.20;72.40
78647;DHT22;67961;43.460;3.762;2023-07-29T11:44:57;27.20;72.50
78647;DHT22;67961;43.460;3.762;2023-07-29T11:47:23;27.20;72.50
78647;DHT22;67961;43.460;3.762;2023-07-29T11:49:49;27.40;72.10
78647;DHT22;67961;43.460;3.762;2023-07-29T11:52:15;27.40;71.90
78647;DHT22;67961;43.460;3.762;2023-07-29T11:54:48;27.40;71.80
78647;DHT22;67961;43.460;3.762;2023-07-29T11:57:14;27.10;72.40
78647;DHT22;67961;43.460;3.762;2023-07-29T11:59:44;27.00;72.90
78647;DHT22;67961;43.460;3.762;2023-07-29T12:02:16;27.10;73.00
78647;DHT22;67961;43.460;3.762;2023-07-29T12:04:44;27.30;72.00
78647;DHT22;67961;43.460;3.762;2023-07-29T12:07:12;27.00;72.60
78647;DHT22;67961;43.460;3.762;2023-07-29T12:09:39;27.20;72.20
78647;DHT22;67961;43.460;3.762;2023-07-29T12:12:06;27.30;72.20
78647;DHT22;67961;43.460;3.762;2023-07-29T12:14:32;27.30;71.70
78647;DHT22;67961;43.460;3.762;2023-07-29T12:17:03;27.30;71.40
78647;DHT22;67961;43.460;3.762;2023-07-29T12:19:37;27.30;71.60
78647;DHT22;67961;43.460;3.762;2023-07-29T12:22:04;27.10;72.00
78647;DHT22;67961;43.460;3.762;2023-07-29T12:24:31;27.00;72.50
78647;DHT22;67961;43.460;3.762;2023-07-29T12:26:57;26.70;72.80
78647;DHT22;67961;43.460;3.762;2023-07-29T12:29:23;26.40;73.80
78647;DHT22;67961;43.460;3.762;2023-07-29T12:31:55;26.40;73.40
78647;DHT22;67961;43.460;3.762;2023-07-29T12:34:22;26.20;74.20
78647;DHT22;67961;43.460;3.762;2023-07-29T12:36:51;26.20;74.00
78647;DHT22;67961;43.460;3.762;2023-07-29T12:39:27;26.20;74.30
78647;DHT22;67961;43.460;3.762;2023-07-29T12:41:54;26.40;74.40
78647;DHT22;67961;43.460;3.762;2023-07-29T12:44:20;26.50;73.90
78647;DHT22;67961;43.460;3.762;2023-07-29T12:46:47;26.30;73.40
78647;DHT22;67961;43.460;3.762;2023-07-29T12:49:13;26.10;74.20
78647;DHT22;67961;43.460;3.762;2023-07-29T12:51:39;26.10;74.70
78647;DHT22;67961;43.460;3.762;2023-07-29T12:54:05;26.30;74.50
78647;DHT22;67961;43.460;3.762;2023-07-29T12:56:31;26.40;74.30
78647;DHT22;67961;43.460;3.762;2023-07-29T12:58:58;26.50;73.30
78647;DHT22;67961;43.460;3.762;2023-07-29T13:01:24;26.60;73.50
78647;DHT22;67961;43.460;3.762;2023-07-29T13:03:50;26.60;72.60
78647;DHT22;67961;43.460;3.762;2023-07-29T13:06:16;26.70;72.90
78647;DHT22;67961;43.460;3.762;2023-07-29T13:08:42;26.70;73.00
78647;DHT22;67961;43.460;3.762;2023-07-29T13:11:08;26.70;72.70
78647;DHT22;67961;43.460;3.762;2023-07-29T13:13:34;26.60;73.10
78647;DHT22;67961;43.460;3.762;2023-07-29T13:16:00;26.60;73.10
78647;DHT22;67961;43.460;3.762;2023-07-29T13:18:26;26.70;72.90
78647;DHT22;67961;43.460;3.762;2023-07-29T13:20:52;26.70;73.00
78647;DHT22;67961;43.460;3.762;2023-07-29T13:23:18;26.60;73.20
78647;DHT22;67961;43.460;3.762;2023-07-29T13:25:43;26.40;73.70
78647;DHT22;67961;43.460;3.762;2023-07-29T13:28:10;26.40;73.90
78647;DHT22;67961;43.460;3.762;2023-07-29T13:30:36;26.10;75.10
78647;DHT22;67961;43.460;3.762;2023-07-29T13:33:02;26.20;74.60
78647;DHT22;67961;43.460;3.762;2023-07-29T13:35:29;26.30;74.20
78647;DHT22;67961;43.460;3.762;2023-07-29T13:37:55;26.40;74.10
78647;DHT22;67961;43.460;3.762;2023-07-29T13:40:20;26.50;73.90
78647;DHT22;67961;43.460;3.762;2023-07-29T13:42:46;26.50;74.00
78647;DHT22;67961;43.460;3.762;2023-07-29T13:45:12;26.40;74.10
78647;DHT22;67961;43.460;3.762;2023-07-29T13:47:37;26.30;74.60
78647;DHT22;67961;43.460;3.762;2023-07-29T13:50:03;26.40;74.60
78647;DHT22;67961;43.460;3.762;2023-07-29T13:52:29;26.40;74.80
78647;DHT22;67961;43.460;3.762;2023-07-29T13:54:55;26.40;74.40
78647;DHT22;67961;43.460;3.762;2023-07-29T13:57:20;26.40;74.70
78647;DHT22;67961;43.460;3.762;2023-07-29T13:59:46;26.40;74.60
78647;DHT22;67961;43.460;3.762;2023-07-29T14:02:12;26.50;74.50
78647;DHT22;67961;43.460;3.762;2023-07-29T14:04:38;26.40;74.70
78647;DHT22;67961;43.460;3.762;2023-07-29T14:07:04;26.30;75.00
78647;DHT22;67961;43.460;3.762;2023-07-29T14:09:29;26.20;75.10
78647;DHT22;67961;43.460;3.762;2023-07-29T14:11:55;26.20;75.30
78647;DHT22;67961;43.460;3.762;2023-07-29T14:14:21;26.20;75.20
78647;DHT22;67961;43.460;3.762;2023-07-29T14:16:46;26.20;75.20
78647;DHT22;67961;43.460;3.762;2023-07-29T14:19:12;26.20;75.30
78647;DHT22;67961;43.460;3.762;2023-07-29T14:21:38;26.00;75.70
78647;DHT22;67961;43.460;3.762;2023-07-29T14:24:05;26.00;76.00
78647;DHT22;67961;43.460;3.762;2023-07-29T14:26:30;26.00;76.00
78647;DHT22;67961;43.460;3.762;2023-07-29T14:28:56;26.10;75.70
78647;DHT22;67961;43.460;3.762;2023-07-29T14:31:22;26.10;75.80
78647;DHT22;67961;43.460;3.762;2023-07-29T14:33:47;26.20;75.50
78647;DHT22;67961;43.460;3.762;2023-07-29T14:36:14;26.20;75.80
78647;DHT22;67961;43.460;3.762;2023-07-29T14:38:40;26.20;75.90
78647;DHT22;67961;43.460;3.762;2023-07-29T14:41:06;26.20;75.90
78647;DHT22;67961;43.460;3.762;2023-07-29T14:43:31;26.20;76.00
78647;DHT22;67961;43.460;3.762;2023-07-29T14:45:57;26.20;76.20
78647;DHT22;67961;43.460;3.762;2023-07-29T14:48:23;26.10;76.30
78647;DHT22;67961;43.460;3.762;2023-07-29T14:50:49;26.20;76.20
78647;DHT22;67961;43.460;3.762;2023-07-29T14:53:14;26.20;76.30
78647;DHT22;67961;43.460;3.762;2023-07-29T14:55:40;26.10;76.20
78647;DHT22;67961;43.460;3.762;2023-07-29T14:58:06;26.00;76.40
78647;DHT22;67961;43.460;3.762;2023-07-29T15:00:32;26.00;77.10
78647;DHT22;67961;43.460;3.762;2023-07-29T15:02:58;25.90;77.50
78647;DHT22;67961;43.460;3.762;2023-07-29T15:05:24;25.80;77.50
78647;DHT22;67961;43.460;3.762;2023-07-29T15:07:50;25.80;77.60
78647;DHT22;67961;43.460;3.762;2023-07-29T15:10:16;25.80;77.80
78647;DHT22;67961;43.460;3.762;2023-07-29T15:12:42;25.80;78.20
78647;DHT22;67961;43.460;3.762;2023-07-29T15:15:09;25.70;78.30
78647;DHT22;67961;43.460;3.762;2023-07-29T15:17:34;25.80;78.30
78647;DHT22;67961;43.460;3.762;2023-07-29T15:20:01;25.80;78.40
78647;DHT22;67961;43.460;3.762;2023-07-29T15:22:26;25.80;78.20
78647;DHT22;67961;43.460;3.762;2023-07-29T15:24:52;25.90;78.10
78647;DHT22;67961;43.460;3.762;2023-07-29T15:27:17;25.80;78.20
78647;DHT22;67961;43.460;3.762;2023-07-29T15:29:44;25.80;78.10
78647;DHT22;67961;43.460;3.762;2023-07-29T15:32:09;25.80;78.20
78647;DHT22;67961;43.460;3.762;2023-07-29T15:34:35;25.80;78.10
78647;DHT22;67961;43.460;3.762;2023-07-29T15:37:02;25.80;78.00
78647;DHT22;67961;43.460;3.762;2023-07-29T15:39:28;25.80;78.20
78647;DHT22;67961;43.460;3.762;2023-07-29T15:41:54;25.80;78.00
78647;DHT22;67961;43.460;3.762;2023-07-29T15:44:20;25.80;78.30
78647;DHT22;67961;43.460;3.762;2023-07-29T15:46:45;25.90;78.20
78647;DHT22;67961;43.460;3.762;2023-07-29T15:49:11;26.00;78.00